createdAt,value
2022-08-25T00:00:55.925Z,85.54
2022-08-25T00:01:55.887Z,85.74
2022-08-25T00:02:57.742Z,85.54
2022-08-25T00:03:55.889Z,85.74
2022-08-25T00:04:55.866Z,85.50
2022-08-25T00:05:55.949Z,84.69
2022-08-25T00:07:00.680Z,84.63
2022-08-25T00:07:57.819Z,85.40
2022-08-25T00:08:55.828Z,85.24
2022-08-25T00:09:55.823Z,84.69
2022-08-25T00:11:03.029Z,85.40
2022-08-25T00:11:56.864Z,84.79
2022-08-25T00:12:55.809Z,84.39
2022-08-25T00:13:55.835Z,85.10
2022-08-25T00:14:55.818Z,84.99
2022-08-25T00:15:55.800Z,84.49
2022-08-25T00:16:56.119Z,85.50
2022-08-25T00:17:55.795Z,84.69
2022-08-25T00:18:55.792Z,84.89
2022-08-25T00:19:55.815Z,85.19
2022-08-25T00:20:55.763Z,85.50
2022-08-25T00:21:55.772Z,85.40
2022-08-25T00:22:55.764Z,85.40
2022-08-25T00:23:55.789Z,84.99
2022-08-25T00:24:55.731Z,84.79
2022-08-25T00:25:55.718Z,84.15
2022-08-25T00:26:55.726Z,84.49
2022-08-25T00:27:55.719Z,84.69
2022-08-25T00:29:01.124Z,84.39
2022-08-25T00:29:56.668Z,84.99
2022-08-25T00:30:55.767Z,84.39
2022-08-25T00:31:55.673Z,84.83
2022-08-25T00:32:57.397Z,85.44
2022-08-25T00:33:55.693Z,85.17
2022-08-25T00:34:55.647Z,85.34
2022-08-25T00:35:55.648Z,85.88
2022-08-25T00:36:55.661Z,85.88
2022-08-25T00:37:55.633Z,86.69
2022-08-25T00:38:55.683Z,86.29
2022-08-25T00:39:55.684Z,86.08
2022-08-25T00:40:55.608Z,86.33
2022-08-25T00:41:55.604Z,86.39
2022-08-25T00:42:55.623Z,86.59
2022-08-25T00:43:55.616Z,87.13
2022-08-25T00:44:56.419Z,86.33
2022-08-25T00:45:55.614Z,86.83
2022-08-25T00:46:56.131Z,86.83
2022-08-25T00:47:56.701Z,86.33
2022-08-25T00:48:55.588Z,87.13
2022-08-25T00:49:55.520Z,87.08
2022-08-25T00:50:55.573Z,87.44
2022-08-25T00:51:55.500Z,87.38
2022-08-25T00:52:55.509Z,87.99
2022-08-25T00:53:55.499Z,87.99
2022-08-25T00:54:55.518Z,87.68
2022-08-25T00:55:55.495Z,87.99
2022-08-25T00:56:55.497Z,87.88
2022-08-25T00:57:55.502Z,87.88
2022-08-25T00:58:55.477Z,87.58
2022-08-25T00:59:55.468Z,88.70
2022-08-25T01:00:55.457Z,88.59
2022-08-25T01:01:56.118Z,88.79
2022-08-25T01:02:55.575Z,88.70
2022-08-25T01:03:55.457Z,88.19
2022-08-25T01:04:55.404Z,88.70
2022-08-25T01:05:55.415Z,88.79
2022-08-25T01:06:55.437Z,87.79
2022-08-25T01:07:58.505Z,87.84
2022-08-25T01:08:55.404Z,88.90
2022-08-25T01:09:55.351Z,87.88
2022-08-25T01:10:55.427Z,87.79
2022-08-25T01:11:55.379Z,87.88
2022-08-25T01:12:55.777Z,87.34
2022-08-25T01:13:55.421Z,87.99
2022-08-25T01:14:55.430Z,87.68
2022-08-25T01:15:55.386Z,88.09
2022-08-25T01:16:55.339Z,88.59
2022-08-25T01:17:55.384Z,89.34
2022-08-25T01:18:55.368Z,88.53
2022-08-25T01:19:55.377Z,89.04
2022-08-25T01:20:55.348Z,89.65
2022-08-25T01:21:55.315Z,89.34
2022-08-25T01:22:56.240Z,89.34
2022-08-25T01:23:55.312Z,89.45
2022-08-25T01:24:55.245Z,89.54
2022-08-25T01:25:55.267Z,89.48
2022-08-25T01:26:55.309Z,89.85
2022-08-25T01:27:56.220Z,89.85
2022-08-25T01:28:56.138Z,89.89
2022-08-25T01:29:55.264Z,89.75
2022-08-25T01:30:55.377Z,89.65
2022-08-25T01:31:55.242Z,89.79
2022-08-25T01:32:55.234Z,89.48
2022-08-25T01:33:55.255Z,90.60
2022-08-25T01:34:55.735Z,90.05
2022-08-25T01:35:55.181Z,90.56
2022-08-25T01:36:55.166Z,90.56
2022-08-25T01:37:55.205Z,89.70
2022-08-25T01:38:55.206Z,89.61
2022-08-25T01:39:56.099Z,88.85
2022-08-25T01:40:55.187Z,88.79
2022-08-25T01:41:55.134Z,89.30
2022-08-25T01:42:55.236Z,89.16
2022-08-25T01:43:55.130Z,89.06
2022-08-25T01:44:55.136Z,88.75
2022-08-25T02:02:52.227Z,88.75
2022-08-25T02:03:49.666Z,88.65
2022-08-25T02:04:48.763Z,88.55
2022-08-25T02:05:49.781Z,88.85
2022-08-25T02:06:49.782Z,88.75
2022-08-25T02:07:49.742Z,88.65
2022-08-25T02:08:49.816Z,89.46
2022-08-25T02:09:49.769Z,89.06
2022-08-25T02:10:49.741Z,89.36
2022-08-25T02:11:50.724Z,89.00
2022-08-25T02:12:49.738Z,89.20
2022-08-25T02:13:49.718Z,89.20
2022-08-25T02:14:49.723Z,90.01
2022-08-25T02:15:49.735Z,89.81
2022-08-25T02:16:49.708Z,89.30
2022-08-25T02:17:49.684Z,89.61
2022-08-25T02:18:49.701Z,89.61
2022-08-25T02:19:49.730Z,89.61
2022-08-25T02:20:49.663Z,89.65
2022-08-25T02:21:49.647Z,89.85
2022-08-25T02:22:56.612Z,90.60
2022-08-25T02:23:54.181Z,90.70
2022-08-25T02:24:49.663Z,91.20
2022-08-25T02:25:49.688Z,90.80
2022-08-25T02:26:49.643Z,90.80
2022-08-25T02:28:23.314Z,91.31
2022-08-25T02:28:49.689Z,91.20
2022-08-25T02:29:49.580Z,91.61
2022-08-25T02:30:49.660Z,92.12
2022-08-25T02:31:52.310Z,92.26
2022-08-25T02:45:02.105Z,92.57
2022-08-25T02:46:02.173Z,93.02
2022-08-25T02:47:04.099Z,93.22
2022-08-25T02:48:03.409Z,93.12
2022-08-25T02:49:03.317Z,92.91
2022-08-25T02:50:03.308Z,92.77
2022-08-25T02:51:03.357Z,93.02
2022-08-25T02:52:03.870Z,93.12
2022-08-25T02:53:03.261Z,92.61
2022-08-25T02:54:03.270Z,93.22
2022-08-25T02:55:03.282Z,92.91
2022-08-25T02:56:03.304Z,92.91
2022-08-25T02:57:03.344Z,92.91
2022-08-25T02:58:03.230Z,92.91
2022-08-25T02:59:03.337Z,92.71
2022-08-25T03:00:03.225Z,92.91
2022-08-25T03:01:03.844Z,93.57
2022-08-25T03:02:03.239Z,93.42
2022-08-25T03:03:03.175Z,93.18
2022-08-25T03:04:03.240Z,93.07
2022-08-25T03:05:03.285Z,93.02
2022-08-25T03:06:03.230Z,93.12
2022-08-25T03:07:03.361Z,93.73
2022-08-25T03:08:03.219Z,93.52
2022-08-25T03:09:03.251Z,93.83
2022-08-25T03:10:03.521Z,93.67
2022-08-25T03:11:03.315Z,93.97
2022-08-25T03:12:03.111Z,93.87
2022-08-25T03:13:03.182Z,93.52
2022-08-25T03:14:03.097Z,93.97
2022-08-25T03:15:03.102Z,93.42
2022-08-25T03:16:03.132Z,92.91
2022-08-25T03:17:03.116Z,92.76
2022-08-25T03:18:04.277Z,92.91
2022-08-25T03:19:03.073Z,92.86
2022-08-25T03:20:03.056Z,92.86
2022-08-25T03:21:03.096Z,92.65
2022-08-25T03:22:03.141Z,93.37
2022-08-25T03:23:03.613Z,93.26
2022-08-25T03:24:03.068Z,93.67
2022-08-25T03:25:03.083Z,94.38
2022-08-25T03:26:03.145Z,94.38
2022-08-25T03:27:02.977Z,94.27
2022-08-25T03:28:02.987Z,93.87
2022-08-25T03:29:03.908Z,93.67
2022-08-25T03:30:02.954Z,93.51
2022-08-25T03:31:03.042Z,92.76
2022-08-25T03:32:03.109Z,92.76
2022-08-25T03:33:03.134Z,93.30
2022-08-25T03:34:03.061Z,93.30
2022-08-25T03:35:03.013Z,93.00
2022-08-25T03:36:02.962Z,93.10
2022-08-25T03:37:03.058Z,93.71
2022-08-25T03:38:02.945Z,94.32
2022-08-25T03:39:02.968Z,94.22
2022-08-25T03:40:03.909Z,94.73
2022-08-25T03:41:02.904Z,94.67
2022-08-25T03:42:03.000Z,94.62
2022-08-25T03:43:03.872Z,94.57
2022-08-25T03:44:02.892Z,94.17
2022-08-25T03:45:02.863Z,94.77
2022-08-25T03:46:02.929Z,94.67
2022-08-25T04:02:21.782Z,96.43
2022-08-25T04:03:21.732Z,97.34
2022-08-25T04:04:21.734Z,97.34
2022-08-25T04:05:21.760Z,97.24
2022-08-25T04:06:21.701Z,97.34
2022-08-25T04:07:22.906Z,96.63
2022-08-25T04:08:22.935Z,96.53
2022-08-25T04:09:22.947Z,96.28
2022-08-25T04:10:22.991Z,96.69
2022-08-25T04:11:22.867Z,96.69
2022-08-25T04:12:22.973Z,96.48
2022-08-25T04:13:22.930Z,97.20
2022-08-25T04:14:23.196Z,96.48
2022-08-25T04:15:22.976Z,97.09
2022-08-25T04:16:23.540Z,96.79
2022-08-25T04:17:22.935Z,96.38
2022-08-25T04:18:24.283Z,96.28
2022-08-25T04:19:23.452Z,96.84
2022-08-25T04:20:22.812Z,96.44
2022-08-25T04:21:22.780Z,96.34
2022-08-25T04:22:22.861Z,96.44
2022-08-25T04:23:22.781Z,96.44
2022-08-25T04:24:22.787Z,96.14
2022-08-25T04:25:23.487Z,96.03
2022-08-25T04:26:22.758Z,95.63
2022-08-25T04:27:22.793Z,96.14
2022-08-25T04:28:23.458Z,96.03
2022-08-25T04:29:23.687Z,95.79
2022-08-25T04:30:22.765Z,96.09
2022-08-25T04:31:23.582Z,96.14
2022-08-25T04:32:22.859Z,96.09
2022-08-25T04:33:22.735Z,96.19
2022-08-25T04:34:28.345Z,96.09
2022-08-25T04:35:23.686Z,96.09
2022-08-25T04:36:22.717Z,96.19
2022-08-25T04:37:22.685Z,95.58
2022-08-25T04:38:22.704Z,95.58
2022-08-25T04:39:22.659Z,95.07
2022-08-25T04:40:27.945Z,95.18
2022-08-25T04:41:24.632Z,95.68
2022-08-25T04:42:23.240Z,94.87
2022-08-25T04:43:22.651Z,94.77
2022-08-25T04:44:22.982Z,94.77
2022-08-25T04:51:48.490Z,95.09
2022-08-25T04:52:48.464Z,95.29
2022-08-25T04:53:48.460Z,95.09
2022-08-25T04:54:48.457Z,95.19
2022-08-25T04:55:50.975Z,94.48
2022-08-25T04:56:49.699Z,94.34
2022-08-25T04:57:50.468Z,93.87
2022-08-25T04:58:49.756Z,93.87
2022-08-25T04:59:49.727Z,93.77
2022-08-25T05:00:50.824Z,93.97
2022-08-25T05:01:50.175Z,94.02
2022-08-25T05:02:49.681Z,93.87
2022-08-25T05:03:49.577Z,93.46
2022-08-25T05:04:49.585Z,93.12
2022-08-25T05:05:49.590Z,92.36
2022-08-25T05:06:49.557Z,91.41
2022-08-25T05:07:49.576Z,89.81
2022-08-25T05:08:49.618Z,88.65
2022-08-25T05:09:49.541Z,87.66
2022-08-25T05:10:49.619Z,86.27
2022-08-25T05:11:49.607Z,84.95
2022-08-25T05:12:49.554Z,83.50
2022-08-25T05:13:51.556Z,82.96
2022-08-25T05:14:49.653Z,82.48
2022-08-25T05:15:50.942Z,80.58
2022-08-25T05:16:49.542Z,79.64
2022-08-25T05:17:53.836Z,78.90
2022-08-25T05:18:52.339Z,77.26
2022-08-25T05:19:49.478Z,77.76
2022-08-25T05:20:49.432Z,76.58
2022-08-25T05:21:49.479Z,75.14
2022-08-25T05:22:50.229Z,75.74
2022-08-25T05:23:49.454Z,74.67
2022-08-25T05:24:49.450Z,73.43
2022-08-25T05:25:49.423Z,73.03
2022-08-25T05:26:49.506Z,72.80
2022-08-25T05:27:49.547Z,73.33
2022-08-25T05:28:49.516Z,72.19
2022-08-25T05:31:50.592Z,73.33
2022-08-25T05:32:47.534Z,73.33
2022-08-25T05:33:49.471Z,73.86
2022-08-25T05:34:50.574Z,74.94
2022-08-25T05:35:48.681Z,75.98
2022-08-25T05:36:49.829Z,76.58
2022-08-25T05:37:49.298Z,76.25
2022-08-25T05:38:51.478Z,76.04
2022-08-25T05:39:48.693Z,74.47
2022-08-25T05:40:48.618Z,73.50
2022-08-25T05:41:48.666Z,72.26
2022-08-25T05:42:48.641Z,71.92
2022-08-25T05:43:49.275Z,71.09
2022-08-25T05:44:48.596Z,70.39
2022-08-25T05:45:49.302Z,71.06
2022-08-25T05:46:49.264Z,71.33
2022-08-25T05:47:49.485Z,72.56
2022-08-25T05:48:48.537Z,72.76
2022-08-25T05:49:48.672Z,72.39
2022-08-25T05:50:48.777Z,71.09
2022-08-25T05:51:48.464Z,72.03
2022-08-25T05:52:48.540Z,72.33
2022-08-25T05:53:48.465Z,72.76
2022-08-25T05:54:48.506Z,73.30
2022-08-25T05:55:48.575Z,73.39
2022-08-25T05:56:48.471Z,73.30
2022-08-25T05:57:48.520Z,73.33
2022-08-25T05:58:48.508Z,74.40
2022-08-25T05:59:48.531Z,73.90
2022-08-25T06:00:48.396Z,73.30
2022-08-25T06:01:48.524Z,72.83
2022-08-25T06:02:49.268Z,71.09
2022-08-25T06:03:49.321Z,70.86
2022-08-25T06:04:48.525Z,70.26
2022-08-25T06:05:48.407Z,70.56
2022-08-25T06:06:48.543Z,70.29
2022-08-25T06:07:48.463Z,70.09
2022-08-25T06:08:48.390Z,68.96
2022-08-25T06:09:49.441Z,68.96
2022-08-25T06:10:48.399Z,68.93
2022-08-25T06:11:51.713Z,68.49
2022-08-25T06:12:50.426Z,66.83
2022-08-25T06:13:48.978Z,66.77
2022-08-25T06:14:48.403Z,67.27
2022-08-25T06:15:48.978Z,67.80
2022-08-25T06:16:48.780Z,68.46
2022-08-25T06:17:49.989Z,69.99
2022-08-25T06:18:50.981Z,70.09
2022-08-25T06:21:47.919Z,69.62
2022-08-25T06:22:48.365Z,69.86
2022-08-25T06:23:49.073Z,68.93
2022-08-25T06:24:48.810Z,67.86
2022-08-25T06:25:48.509Z,66.01
2022-08-25T06:26:52.872Z,66.17
2022-08-25T06:27:48.892Z,66.34
2022-08-25T06:28:48.521Z,66.80
2022-08-25T06:29:48.515Z,65.05
2022-08-25T06:30:48.508Z,64.62
2022-08-25T06:31:48.541Z,63.67
2022-08-25T06:32:50.619Z,62.74
2022-08-25T06:33:48.513Z,62.64
2022-08-25T06:34:49.263Z,63.27
2022-08-25T06:35:48.487Z,65.08
2022-08-25T06:36:49.016Z,66.31
2022-08-25T06:37:49.393Z,65.98
2022-08-25T06:38:48.565Z,66.67
2022-08-25T06:39:48.510Z,66.91
2022-08-25T06:40:49.166Z,68.37
2022-08-25T06:41:49.473Z,70.03
2022-08-25T06:42:48.411Z,69.79
2022-08-25T06:43:52.930Z,68.96
2022-08-25T06:44:51.870Z,68.73
2022-08-25T06:45:49.892Z,67.77
2022-08-25T06:46:48.924Z,65.84
2022-08-25T06:47:49.372Z,66.81
2022-08-25T06:48:48.519Z,64.98
2022-08-25T06:49:48.530Z,63.43
2022-08-25T06:50:49.271Z,64.36
2022-08-25T06:51:48.458Z,65.61
2022-08-25T06:52:48.414Z,64.66
2022-08-25T06:53:49.875Z,64.86
2022-08-25T06:54:49.101Z,63.80
2022-08-25T06:55:48.379Z,62.05
2022-08-25T06:56:49.730Z,62.32
2022-08-25T06:57:48.406Z,61.70
2022-08-25T06:58:48.382Z,60.16
2022-08-25T06:59:50.151Z,61.21
2022-08-25T07:00:48.390Z,62.65
2022-08-25T07:02:22.109Z,63.51
2022-08-25T07:02:48.918Z,64.98
2022-08-25T07:03:49.287Z,65.91
2022-08-25T07:04:48.437Z,64.83
2022-08-25T07:05:48.268Z,64.10
2022-08-25T07:06:48.387Z,64.20
2022-08-25T07:07:48.234Z,64.53
2022-08-25T07:08:48.305Z,64.83
2022-08-25T07:09:48.294Z,65.65
2022-08-25T07:10:48.332Z,64.50
2022-08-25T07:11:48.925Z,65.25
2022-08-25T07:12:48.343Z,65.45
2022-08-25T07:13:48.209Z,66.35
2022-08-25T07:15:03.497Z,66.15
2022-08-25T07:15:50.318Z,64.73
2022-08-25T07:16:50.243Z,64.73
2022-08-25T07:18:22.048Z,63.37
2022-08-25T07:18:48.745Z,63.57
2022-08-25T07:19:48.111Z,64.40
2022-08-25T07:20:48.112Z,64.40
2022-08-25T07:21:48.965Z,64.99
2022-08-25T07:24:08.209Z,65.72
2022-08-25T07:25:08.157Z,65.02
2022-08-25T07:26:15.839Z,66.74
2022-08-25T07:27:11.352Z,67.90
2022-08-25T07:28:09.375Z,68.30
2022-08-25T07:29:09.380Z,67.97
2022-08-25T07:30:09.281Z,67.70
2022-08-25T07:31:41.863Z,66.97
2022-08-25T07:32:09.915Z,65.56
2022-08-25T07:33:09.462Z,63.74
2022-08-25T07:34:09.916Z,63.28
2022-08-25T07:35:09.341Z,62.26
2022-08-25T07:36:09.996Z,62.33
2022-08-25T07:37:09.304Z,61.08
2022-08-25T07:39:11.209Z,61.99
2022-08-25T07:40:09.403Z,62.29
2022-08-25T07:41:09.355Z,63.31
2022-08-25T07:42:12.283Z,63.84
2022-08-25T07:43:09.403Z,63.21
2022-08-25T07:44:09.366Z,63.39
2022-08-25T07:45:09.289Z,61.61
2022-08-25T07:46:09.729Z,61.21
2022-08-25T07:47:09.292Z,60.82
2022-08-25T07:48:09.232Z,61.38
2022-08-25T07:49:16.299Z,60.46
2022-08-25T07:50:11.082Z,59.87
2022-08-25T07:51:09.241Z,60.76
2022-08-25T07:52:11.208Z,61.21
2022-08-25T07:53:09.419Z,61.48
2022-08-25T07:54:09.253Z,59.52
2022-08-25T07:55:11.103Z,58.89
2022-08-25T07:56:09.260Z,57.23
2022-08-25T07:57:10.708Z,57.23
2022-08-25T07:58:09.709Z,57.33
2022-08-25T07:59:10.075Z,56.81
2022-08-25T08:00:09.189Z,56.64
2022-08-25T08:01:10.737Z,57.46
2022-08-25T08:02:16.096Z,58.20
2022-08-25T08:03:19.691Z,59.29
2022-08-25T08:04:11.787Z,58.15
2022-08-25T08:05:09.771Z,57.95
2022-08-25T08:06:09.141Z,57.95
2022-08-25T08:07:12.138Z,59.84
2022-08-25T08:08:10.714Z,59.39
2022-08-25T08:09:09.116Z,58.02
2022-08-25T08:10:42.470Z,56.88
2022-08-25T08:11:11.314Z,56.79
2022-08-25T08:12:09.174Z,56.88
2022-08-25T08:13:09.325Z,56.59
2022-08-25T08:14:09.725Z,57.23
2022-08-25T08:15:10.282Z,56.81
2022-08-25T08:16:09.152Z,56.07
2022-08-25T08:17:09.156Z,55.87
2022-08-25T08:18:09.717Z,56.16
2022-08-25T08:19:09.027Z,55.77
2022-08-25T08:20:09.101Z,56.16
2022-08-25T08:21:08.990Z,55.65
2022-08-25T08:22:09.056Z,56.16
2022-08-25T08:23:09.119Z,57.01
2022-08-25T08:24:19.552Z,57.50
2022-08-25T08:25:13.729Z,56.56
2022-08-25T08:26:10.005Z,56.91
2022-08-25T08:27:09.166Z,56.14
2022-08-25T08:28:09.127Z,55.03
2022-08-25T08:29:42.328Z,54.93
2022-08-25T08:30:08.874Z,55.16
2022-08-25T08:31:10.582Z,56.39
2022-08-25T08:32:08.872Z,57.08
2022-08-25T08:33:11.414Z,56.10
2022-08-25T08:34:09.845Z,57.01
2022-08-25T08:35:08.913Z,56.69
2022-08-25T08:36:08.837Z,56.71
2022-08-25T08:37:10.500Z,56.24
2022-08-25T08:38:14.470Z,55.40
2022-08-25T08:39:10.863Z,54.61
2022-08-25T08:40:08.900Z,54.91
2022-08-25T08:41:08.805Z,55.10
2022-08-25T08:42:11.199Z,55.00
2022-08-25T08:43:18.475Z,55.43
2022-08-25T08:44:09.889Z,54.68
2022-08-25T08:45:09.535Z,53.87
2022-08-25T08:46:08.849Z,54.17
2022-08-25T08:47:09.750Z,52.45
2022-08-25T08:48:09.179Z,52.67
2022-08-25T08:49:08.727Z,53.75
2022-08-25T08:50:08.740Z,53.38
2022-08-25T08:51:10.025Z,53.85
2022-08-25T08:52:08.757Z,52.84
2022-08-25T08:53:08.707Z,53.55
2022-08-25T08:54:15.540Z,52.74
2022-08-25T08:55:09.739Z,54.54
2022-08-25T08:56:08.896Z,57.14
2022-08-25T08:57:08.719Z,57.79
2022-08-25T08:58:08.671Z,57.50
2022-08-25T08:59:08.687Z,56.73
2022-08-25T09:00:08.672Z,54.85
2022-08-25T09:01:08.693Z,52.56
2022-08-25T09:02:13.804Z,49.41
2022-08-25T09:03:10.729Z,48.75
2022-08-25T09:04:08.696Z,48.44
2022-08-25T09:05:08.637Z,48.14
2022-08-25T09:06:08.670Z,51.03
2022-08-25T09:07:08.615Z,55.70
2022-08-25T09:08:08.951Z,59.52
2022-08-25T09:09:08.623Z,59.39
2022-08-25T09:10:08.624Z,57.18
2022-08-25T09:11:10.371Z,55.03
2022-08-25T09:12:08.669Z,53.09
2022-08-25T09:13:12.136Z,53.28
2022-08-25T09:14:09.724Z,54.22
2022-08-25T09:15:13.145Z,54.96
2022-08-25T09:16:09.666Z,54.35
2022-08-25T09:17:10.013Z,53.78
2022-08-25T09:18:08.669Z,56.00
2022-08-25T09:19:08.529Z,56.42
2022-08-25T09:20:18.812Z,56.94
2022-08-25T09:21:09.509Z,55.45
2022-08-25T09:22:33.901Z,54.22
2022-08-25T09:23:09.495Z,53.92
2022-08-25T09:24:08.493Z,53.09
2022-08-25T09:25:09.043Z,52.57
2022-08-25T09:26:09.516Z,52.47
2022-08-25T09:27:08.512Z,51.46
2022-08-25T09:28:08.515Z,51.17
2022-08-25T09:29:16.230Z,52.20
2022-08-25T09:30:10.042Z,53.68
2022-08-25T09:31:08.546Z,53.98
2022-08-25T09:32:09.348Z,53.04
2022-08-25T09:33:08.495Z,52.62
2022-08-25T09:34:08.441Z,53.11
2022-08-25T09:35:08.444Z,53.53
2022-08-25T09:36:08.978Z,53.50
2022-08-25T09:37:08.386Z,52.82
2022-08-25T09:38:08.448Z,51.86
2022-08-25T09:39:09.929Z,51.76
2022-08-25T09:40:08.402Z,51.89
2022-08-25T09:41:08.382Z,53.33
2022-08-25T09:42:08.378Z,53.83
2022-08-25T09:43:08.354Z,53.11
2022-08-25T09:44:08.374Z,53.14
2022-08-25T09:45:08.390Z,53.85
2022-08-25T09:46:08.418Z,53.21
2022-08-25T09:47:08.465Z,52.62
2022-08-25T09:48:08.360Z,54.39
2022-08-25T09:49:08.325Z,54.60
2022-08-25T09:50:08.403Z,54.91
2022-08-25T09:51:09.359Z,53.31
2022-08-25T09:52:08.387Z,53.70
2022-08-25T09:53:17.454Z,52.48
2022-08-25T09:54:10.599Z,52.08
2022-08-25T09:55:08.586Z,53.86
2022-08-25T09:56:08.299Z,55.39
2022-08-25T09:57:08.971Z,54.80
2022-08-25T09:58:09.647Z,54.97
2022-08-25T09:59:08.296Z,55.16
2022-08-25T10:00:09.305Z,54.38
2022-08-25T10:01:08.314Z,54.22
2022-08-25T10:02:08.256Z,54.03
2022-08-25T10:03:08.413Z,54.43
2022-08-25T10:04:17.689Z,54.74
2022-08-25T10:05:09.307Z,55.04
2022-08-25T10:06:13.221Z,53.91
2022-08-25T10:07:09.213Z,54.45
2022-08-25T10:08:08.232Z,55.39
2022-08-25T10:09:08.183Z,55.46
2022-08-25T10:10:08.184Z,55.21
2022-08-25T10:11:08.677Z,52.99
2022-08-25T10:12:08.190Z,53.54
2022-08-25T10:13:08.389Z,54.97
2022-08-25T10:14:08.215Z,55.46
2022-08-25T10:15:08.163Z,54.30
2022-08-25T10:16:20.174Z,53.68
2022-08-25T10:17:09.164Z,53.91
2022-08-25T10:18:08.137Z,55.33
2022-08-25T10:19:08.159Z,54.82
2022-08-25T10:20:08.786Z,53.27
2022-08-25T10:21:08.124Z,52.35
2022-08-25T10:22:08.255Z,52.45
2022-08-25T10:23:08.135Z,51.96
2022-08-25T10:24:08.095Z,52.84
2022-08-25T10:25:08.102Z,53.27
2022-08-25T10:26:08.096Z,53.23
2022-08-25T10:27:08.081Z,52.33
2022-08-25T10:28:08.059Z,52.15
2022-08-25T10:29:08.104Z,52.20
2022-08-25T10:30:08.027Z,51.20
2022-08-25T10:31:09.662Z,51.84
2022-08-25T10:32:12.007Z,52.65
2022-08-25T10:33:09.124Z,53.39
2022-08-25T10:34:08.066Z,54.30
2022-08-25T10:35:08.038Z,53.06
2022-08-25T10:36:08.051Z,51.72
2022-08-25T10:37:09.193Z,52.30
2022-08-25T10:38:08.062Z,52.01
2022-08-25T10:39:34.638Z,51.49
2022-08-25T10:40:09.017Z,51.20
2022-08-25T10:41:07.969Z,53.09
2022-08-25T10:42:07.954Z,53.58
2022-08-25T10:43:08.452Z,53.44
2022-08-25T10:44:07.965Z,53.58
2022-08-25T10:45:08.020Z,54.39
2022-08-25T10:46:08.054Z,53.92
2022-08-25T10:47:07.935Z,52.76
2022-08-25T10:48:08.068Z,52.28
2022-08-25T10:49:07.937Z,52.37
2022-08-25T10:50:07.951Z,52.08
2022-08-25T10:51:09.800Z,53.98
2022-08-25T10:52:07.886Z,55.31
2022-08-25T10:53:09.210Z,54.99
2022-08-25T10:54:07.885Z,53.66
2022-08-25T10:55:07.856Z,52.87
2022-08-25T10:56:07.903Z,53.14
2022-08-25T10:57:08.222Z,52.92
2022-08-25T10:58:07.842Z,52.50
2022-08-25T10:59:07.917Z,51.72
2022-08-25T11:00:07.837Z,52.40
2022-08-25T11:01:08.097Z,52.77
2022-08-25T11:02:07.966Z,54.33
2022-08-25T11:03:07.978Z,54.72
2022-08-25T11:04:07.910Z,53.36
2022-08-25T11:05:07.893Z,52.23
2022-08-25T11:06:07.880Z,51.49
2022-08-25T11:07:07.786Z,51.03
2022-08-25T11:08:07.786Z,49.38
2022-08-25T11:09:07.774Z,48.87
2022-08-25T11:10:07.770Z,49.65
2022-08-25T11:11:07.782Z,50.42
2022-08-25T11:12:07.826Z,51.12
2022-08-25T11:13:07.776Z,51.50
2022-08-25T11:14:10.988Z,52.89
2022-08-25T11:15:08.452Z,53.51
2022-08-25T11:16:17.089Z,52.89
2022-08-25T11:17:09.829Z,53.29
2022-08-25T11:18:14.692Z,52.28
2022-08-25T11:19:08.781Z,52.67
2022-08-25T11:20:07.687Z,53.22
2022-08-25T11:21:07.722Z,53.81
2022-08-25T11:22:07.744Z,53.27
2022-08-25T11:23:07.827Z,52.01
2022-08-25T11:24:07.698Z,51.39
2022-08-25T11:25:07.649Z,49.70
2022-08-25T11:26:07.686Z,49.60
2022-08-25T11:27:07.665Z,50.39
2022-08-25T11:28:07.921Z,49.99
2022-08-25T11:29:07.776Z,49.77
2022-08-25T11:30:07.713Z,49.33
2022-08-25T11:31:07.742Z,48.90
2022-08-25T11:32:07.655Z,48.31
2022-08-25T11:33:07.641Z,49.46
2022-08-25T11:34:07.620Z,49.82
2022-08-25T11:35:07.627Z,50.66
2022-08-25T11:36:07.620Z,51.62
2022-08-25T11:37:07.617Z,50.83
2022-08-25T11:38:07.815Z,51.64
2022-08-25T11:39:07.634Z,51.34
2022-08-25T11:40:08.811Z,52.08
2022-08-25T11:41:11.071Z,52.38
2022-08-25T11:42:07.601Z,52.35
2022-08-25T11:43:08.265Z,51.54
2022-08-25T11:44:07.592Z,51.22
2022-08-25T11:45:07.529Z,50.98
2022-08-25T11:46:07.629Z,50.71
2022-08-25T11:47:07.541Z,52.20
2022-08-25T11:48:08.522Z,52.42
2022-08-25T11:49:07.527Z,52.30
2022-08-25T11:50:07.578Z,52.35
2022-08-25T11:51:07.552Z,53.81
2022-08-25T11:52:07.472Z,55.46
2022-08-25T11:53:11.366Z,56.45
2022-08-25T11:54:07.487Z,56.08
2022-08-25T11:55:07.497Z,56.37
2022-08-25T11:56:07.458Z,55.16
2022-08-25T11:57:07.472Z,55.63
2022-08-25T11:58:07.713Z,54.52
2022-08-25T11:59:07.428Z,54.03
2022-08-25T12:00:07.436Z,54.33
2022-08-25T12:01:07.488Z,54.20
2022-08-25T12:02:07.436Z,53.49
2022-08-25T12:03:07.435Z,53.58
2022-08-25T12:04:07.443Z,55.04
2022-08-25T12:05:07.541Z,55.11
2022-08-25T12:06:07.408Z,54.22
2022-08-25T12:07:07.432Z,54.64
2022-08-25T12:08:07.414Z,53.74
2022-08-25T12:09:07.423Z,54.03
2022-08-25T12:10:07.434Z,54.33
2022-08-25T12:11:10.963Z,54.49
2022-08-25T12:12:08.410Z,55.04
2022-08-25T12:13:10.578Z,56.48
2022-08-25T12:14:07.405Z,56.87
2022-08-25T12:15:07.349Z,56.45
2022-08-25T12:16:07.333Z,56.42
2022-08-25T12:17:07.347Z,56.84
2022-08-25T12:18:08.851Z,56.64
2022-08-25T12:19:08.343Z,55.80
2022-08-25T12:20:07.408Z,54.86
2022-08-25T12:21:07.276Z,54.27
2022-08-25T12:22:08.312Z,53.46
2022-08-25T12:23:07.288Z,52.75
2022-08-25T12:24:07.302Z,52.75
2022-08-25T12:25:07.316Z,52.87
2022-08-25T12:26:07.319Z,54.49
2022-08-25T12:27:07.287Z,54.69
2022-08-25T12:28:09.282Z,54.27
2022-08-25T12:29:07.439Z,52.15
2022-08-25T12:30:07.269Z,51.27
2022-08-25T12:31:07.315Z,51.96
2022-08-25T12:32:07.254Z,52.97
2022-08-25T12:33:07.307Z,52.89
2022-08-25T12:34:07.246Z,53.78
2022-08-25T12:35:07.264Z,52.87
2022-08-25T12:36:07.237Z,52.45
2022-08-25T12:37:07.191Z,51.45
2022-08-25T12:38:07.443Z,51.22
2022-08-25T12:39:07.245Z,51.00
2022-08-25T12:40:07.249Z,51.12
2022-08-25T12:41:07.211Z,51.81
2022-08-25T12:42:07.180Z,50.32
2022-08-25T12:43:07.367Z,50.93
2022-08-25T12:44:07.230Z,52.28
2022-08-25T12:45:07.220Z,53.31
2022-08-25T12:46:07.263Z,54.03
2022-08-25T12:47:07.181Z,53.44
2022-08-25T12:48:08.129Z,52.65
2022-08-25T12:49:07.138Z,52.82
2022-08-25T12:50:07.147Z,51.54
2022-08-25T12:51:07.108Z,51.93
2022-08-25T12:52:07.207Z,51.81
2022-08-25T12:53:07.249Z,51.72
2022-08-25T12:54:10.525Z,52.01
2022-08-25T12:55:08.100Z,50.88
2022-08-25T12:56:07.101Z,50.66
2022-08-25T12:57:07.111Z,50.56
2022-08-25T12:58:07.093Z,51.07
2022-08-25T12:59:07.082Z,51.47
2022-08-25T13:00:07.128Z,50.93
2022-08-25T13:01:09.266Z,50.04
2022-08-25T13:02:07.366Z,52.28
2022-08-25T13:03:07.458Z,52.99
2022-08-25T13:04:07.034Z,52.08
2022-08-25T13:05:07.005Z,52.25
2022-08-25T13:06:08.119Z,51.54
2022-08-25T13:07:07.042Z,51.42
2022-08-25T13:08:07.274Z,51.74
2022-08-25T13:09:08.276Z,51.42
2022-08-25T13:10:07.002Z,50.93
2022-08-25T13:11:06.969Z,50.83
2022-08-25T13:12:06.965Z,51.22
2022-08-25T13:13:06.982Z,51.39
2022-08-25T13:14:06.953Z,51.00
2022-08-25T13:15:06.982Z,49.11
2022-08-25T13:16:08.005Z,49.31
2022-08-25T13:17:06.998Z,49.73
2022-08-25T13:18:07.210Z,49.73
2022-08-25T13:19:07.011Z,50.46
2022-08-25T13:20:07.043Z,51.37
2022-08-25T13:21:06.913Z,50.95
2022-08-25T13:22:06.929Z,50.56
2022-08-25T13:23:07.110Z,51.76
2022-08-25T13:24:06.910Z,51.74
2022-08-25T13:25:06.902Z,51.74
2022-08-25T13:26:06.890Z,51.25
2022-08-25T13:27:06.875Z,52.55
2022-08-25T13:28:11.141Z,52.82
2022-08-25T13:29:09.163Z,52.14
2022-08-25T13:30:08.236Z,52.65
2022-08-25T13:31:06.838Z,52.85
2022-08-25T13:32:09.095Z,52.45
2022-08-25T13:33:08.840Z,51.67
2022-08-25T13:34:06.894Z,52.36
2022-08-25T13:35:06.858Z,52.23
2022-08-25T13:36:06.869Z,51.40
2022-08-25T13:37:06.777Z,51.42
2022-08-25T13:38:07.005Z,51.35
2022-08-25T13:39:06.778Z,51.32
2022-08-25T13:40:06.869Z,51.10
2022-08-25T13:41:09.341Z,50.29
2022-08-25T13:42:06.795Z,51.07
2022-08-25T13:43:06.787Z,50.51
2022-08-25T13:44:06.793Z,50.39
2022-08-25T13:45:07.748Z,49.16
2022-08-25T13:46:07.859Z,49.43
2022-08-25T13:47:06.726Z,49.24
2022-08-25T13:48:06.750Z,49.36
2022-08-25T13:49:08.768Z,49.63
2022-08-25T13:50:06.740Z,49.26